Time;durP1;ratioP1;P1;durP2;ratioP2;P2;SDS_P1;SDS_P2;PMS_P1;PMS_P2;Temp;Humidity;BMP_temperature;BMP_pressure;BME280_temperature;BME280_humidity;BME280_pressure;Samples;Min_cycle;Max_cycle;Signal;HPM_P1;HPM_P2
2022/09/05 00:02:23;;;;;;;2.10;0.90;;;13.70;97.80;;;;;;4807541;29;20304;-77
2022/09/05 00:05:18;;;;;;;1.23;0.97;;;13.60;98.20;;;;;;4753465;30;20242;-76
2022/09/05 00:08:31;;;;;;;1.67;0.90;;;13.50;98.40;;;;;;4767889;30;20735;-74
2022/09/05 00:11:07;;;;;;;2.30;0.87;;;13.40;98.30;;;;;;4717637;30;20214;-76
2022/09/05 00:14:25;;;;;;;1.17;0.87;;;13.40;98.40;;;;;;4732172;30;20241;-75
2022/09/05 00:18:08;;;;;;;2.17;0.97;;;13.40;98.60;;;;;;4718029;30;20227;-75
2022/09/05 00:21:31;;;;;;;2.93;1.00;;;13.40;98.70;;;;;;4682985;30;20213;-75
2022/09/05 00:24:37;;;;;;;1.07;0.83;;;13.30;98.80;;;;;;4683015;30;20266;-74
2022/09/05 00:27:45;;;;;;;10.23;2.27;;;13.30;98.80;;;;;;4697566;30;20218;-74
2022/09/05 00:30:17;;;;;;;1.80;1.00;;;13.10;98.80;;;;;;4684021;30;20219;-69
2022/09/05 00:33:22;;;;;;;2.47;1.00;;;13.10;99.00;;;;;;4686268;30;20219;-71
2022/09/05 00:36:31;;;;;;;2.17;1.00;;;13.00;99.00;;;;;;4686730;30;20223;-71
2022/09/05 00:39:32;;;;;;;1.57;0.90;;;13.00;99.10;;;;;;4686176;30;20746;-70
2022/09/05 00:42:16;;;;;;;1.33;0.90;;;12.90;99.40;;;;;;4665794;30;20209;-70
2022/09/05 00:45:00;;;;;;;4.33;1.10;;;12.80;99.40;;;;;;4688781;30;20528;-69
2022/09/05 00:47:51;;;;;;;2.97;1.27;;;12.80;99.60;;;;;;4703500;30;20219;-69
2022/09/05 00:50:42;;;;;;;2.93;1.10;;;12.70;99.90;;;;;;4710489;30;20720;-69
2022/09/05 00:53:24;;;;;;;1.43;1.00;;;12.60;99.90;;;;;;4770706;30;20209;-69
2022/09/05 00:56:33;;;;;;;3.53;1.10;;;12.60;99.90;;;;;;4770693;30;20220;-71
2022/09/05 00:59:23;;;;;;;6.27;1.67;;;12.60;99.90;;;;;;4770606;30;20244;-70
2022/09/05 01:02:03;;;;;;;2.90;1.10;;;12.50;99.90;;;;;;4770481;30;20213;-71
2022/09/05 01:04:46;;;;;;;2.47;0.90;;;12.50;99.90;;;;;;4770712;30;20196;-72
2022/09/05 01:07:31;;;;;;;1.57;1.07;;;12.50;99.90;;;;;;4755807;30;20224;-71
2022/09/05 01:10:20;;;;;;;2.43;0.90;;;12.40;99.90;;;;;;4770397;30;20275;-71
2022/09/05 01:13:24;;;;;;;2.23;0.90;;;12.40;99.90;;;;;;4770291;30;20240;-71
2022/09/05 01:15:57;;;;;;;2.03;1.10;;;12.30;99.90;;;;;;4720474;30;20280;-71
2022/09/05 01:19:08;;;;;;;1.40;0.90;;;12.30;99.90;;;;;;4732500;30;20584;-72
2022/09/05 01:22:18;;;;;;;1.63;1.00;;;12.20;99.90;;;;;;4770149;30;20432;-79
2022/09/05 01:25:30;;;;;;;4.10;1.10;;;12.20;99.90;;;;;;4788160;30;20208;-76
2022/09/05 01:28:04;;;;;;;0.93;0.80;;;12.10;99.90;;;;;;4764632;30;20208;-70
2022/09/05 01:31:00;;;;;;;1.80;1.00;;;12.00;99.90;;;;;;4772779;30;20687;-70
2022/09/05 01:33:45;;;;;;;9.17;2.60;;;12.00;99.90;;;;;;4773174;30;20211;-71
2022/09/05 01:36:28;;;;;;;3.87;1.10;;;11.90;99.90;;;;;;4773191;30;20216;-71
2022/09/05 01:39:03;;;;;;;2.17;1.00;;;11.90;99.90;;;;;;4787883;30;20738;-71
2022/09/05 01:42:17;;;;;;;1.70;0.87;;;11.90;99.90;;;;;;4772370;30;20592;-71
2022/09/05 01:45:05;;;;;;;2.50;1.10;;;11.90;99.90;;;;;;4772618;30;20238;-71
2022/09/05 01:47:50;;;;;;;1.87;0.97;;;11.80;99.90;;;;;;4773045;30;20596;-71
2022/09/05 01:50:39;;;;;;;2.13;1.10;;;11.80;99.90;;;;;;4787353;29;20558;-71
2022/09/05 01:53:37;;;;;;;1.40;0.97;;;11.80;99.90;;;;;;4824498;29;20207;-70
2022/09/05 01:56:20;;;;;;;2.83;1.00;;;11.80;99.90;;;;;;4824475;29;20203;-71
2022/09/05 01:59:07;;;;;;;2.97;1.00;;;11.70;99.90;;;;;;4824583;29;20226;-76
2022/09/05 02:02:05;;;;;;;1.80;0.90;;;11.60;99.90;;;;;;4809392;29;20211;-71
2022/09/05 02:04:43;;;;;;;5.17;1.67;;;11.60;99.90;;;;;;4824623;29;20211;-71
2022/09/05 02:07:22;;;;;;;2.57;1.10;;;11.60;99.90;;;;;;4824652;29;20207;-72
2022/09/05 02:10:06;;;;;;;1.30;1.00;;;11.60;99.90;;;;;;4825606;29;20199;-71
2022/09/05 02:13:02;;;;;;;1.07;0.97;;;11.60;99.90;;;;;;4824326;29;20217;-71
2022/09/05 02:15:47;;;;;;;2.07;1.00;;;11.60;99.90;;;;;;4824560;29;20228;-71
2022/09/05 02:18:47;;;;;;;0.97;0.87;;;11.50;99.90;;;;;;4825420;29;20666;-71
2022/09/05 02:21:32;;;;;;;1.47;1.10;;;11.40;99.90;;;;;;4824226;29;20211;-71
2022/09/05 02:24:31;;;;;;;4.10;1.30;;;11.40;99.90;;;;;;4824076;29;20225;-74
2022/09/05 02:27:25;;;;;;;3.57;1.27;;;11.40;99.90;;;;;;4824367;29;20215;-76
2022/09/05 02:30:17;;;;;;;1.10;0.90;;;11.30;99.90;;;;;;4823907;29;20198;-71
2022/09/05 02:33:12;;;;;;;5.33;1.40;;;11.20;99.90;;;;;;4823949;29;20308;-72
2022/09/05 02:36:09;;;;;;;2.30;1.00;;;11.20;99.90;;;;;;4824004;29;20195;-71
2022/09/05 02:38:59;;;;;;;2.33;0.97;;;11.10;99.90;;;;;;4825028;29;20266;-78
2022/09/05 02:42:18;;;;;;;3.57;1.20;;;11.00;99.90;;;;;;4825114;29;20576;-72
2022/09/05 02:45:32;;;;;;;1.73;1.10;;;11.00;99.90;;;;;;4817320;29;20626;-77
2022/09/05 02:48:09;;;;;;;3.47;1.00;;;10.90;99.90;;;;;;4824273;29;20738;-71
2022/09/05 02:50:55;;;;;;;1.63;1.13;;;10.90;99.90;;;;;;4823632;29;20253;-77
2022/09/05 02:53:49;;;;;;;2.90;0.90;;;10.90;99.90;;;;;;4824114;29;20657;-72
2022/09/05 02:57:17;;;;;;;1.13;0.90;;;10.90;99.90;;;;;;4825041;29;20206;-71
2022/09/05 03:00:15;;;;;;;1.33;1.07;;;10.80;99.90;;;;;;4771439;30;20208;-78
2022/09/05 03:02:56;;;;;;;3.20;1.00;;;10.80;99.90;;;;;;4771541;30;20214;-71
2022/09/05 03:05:54;;;;;;;1.50;1.00;;;10.80;99.90;;;;;;4771608;30;20216;-72
2022/09/05 03:08:27;;;;;;;1.17;1.00;;;10.70;99.90;;;;;;4753542;30;20766;-71
2022/09/05 03:11:19;;;;;;;2.87;1.03;;;10.70;99.90;;;;;;4753545;30;20205;-71
2022/09/05 03:14:05;;;;;;;1.90;1.00;;;10.70;99.90;;;;;;4768571;30;20266;-71
2022/09/05 03:17:09;;;;;;;1.57;1.00;;;10.60;99.90;;;;;;4768394;30;20553;-71
2022/09/05 03:20:00;;;;;;;2.60;1.20;;;10.50;99.90;;;;;;4768475;30;20733;-76
2022/09/05 03:23:04;;;;;;;5.00;1.30;;;10.50;99.90;;;;;;4767998;30;20228;-71
2022/09/05 03:26:21;;;;;;;1.43;1.00;;;10.50;99.90;;;;;;4768456;30;20212;-77
2022/09/05 03:29:28;;;;;;;1.20;1.07;;;10.40;99.90;;;;;;4750347;30;20210;-78
2022/09/05 03:31:55;;;;;;;4.50;1.20;;;10.40;99.90;;;;;;4750076;30;20215;-76
2022/09/05 03:34:40;;;;;;;2.90;1.20;;;10.30;99.90;;;;;;4735757;30;20220;-71
2022/09/05 03:37:30;;;;;;;4.20;1.20;;;10.30;99.90;;;;;;4735579;30;20213;-71
2022/09/05 03:40:35;;;;;;;5.83;1.47;;;10.20;99.90;;;;;;4735423;30;20210;-71
2022/09/05 03:43:35;;;;;;;4.27;1.17;;;10.20;99.90;;;;;;4735386;30;20209;-76
2022/09/05 03:46:17;;;;;;;1.67;1.10;;;10.10;99.90;;;;;;4778418;30;20662;-77
2022/09/05 03:49:05;;;;;;;5.97;1.20;;;10.10;99.90;;;;;;4771063;30;20674;-74
2022/09/05 03:52:05;;;;;;;3.67;1.30;;;10.10;99.90;;;;;;4785672;29;20228;-73
2022/09/05 03:55:19;;;;;;;1.63;1.10;;;10.10;99.90;;;;;;4785872;30;20651;-78
2022/09/05 03:58:33;;;;;;;2.10;1.30;;;10.00;99.90;;;;;;4785939;30;20251;-78
2022/09/05 04:01:45;;;;;;;1.67;1.20;;;9.90;99.90;;;;;;4785505;30;20297;-71
2022/09/05 04:04:49;;;;;;;3.50;1.30;;;9.90;99.90;;;;;;4811290;29;20222;-76
2022/09/05 04:08:10;;;;;;;4.53;1.27;;;9.90;99.90;;;;;;4827656;29;20202;-71
2022/09/05 04:11:09;;;;;;;3.63;1.20;;;9.90;99.90;;;;;;4826128;29;20198;-71
2022/09/05 04:13:45;;;;;;;3.10;1.20;;;9.90;99.90;;;;;;4826376;29;20266;-72
2022/09/05 04:16:27;;;;;;;2.03;1.20;;;9.80;99.90;;;;;;4826284;29;20202;-77
2022/09/05 04:19:06;;;;;;;9.23;2.13;;;9.80;99.90;;;;;;4826203;29;20261;-79
2022/09/05 04:21:45;;;;;;;3.83;1.43;;;9.70;99.90;;;;;;4827291;29;20195;-71
2022/09/05 04:24:30;;;;;;;2.87;1.33;;;9.80;99.90;;;;;;4827404;29;20289;-70
2022/09/05 04:27:18;;;;;;;2.27;1.20;;;9.80;99.90;;;;;;4826108;29;20199;-72
2022/09/05 04:30:02;;;;;;;2.17;1.40;;;9.80;99.90;;;;;;4827371;29;20219;-74
2022/09/05 04:33:04;;;;;;;8.07;1.70;;;9.80;99.90;;;;;;4825762;29;20198;-75
2022/09/05 04:35:52;;;;;;;6.57;1.37;;;9.90;99.90;;;;;;4825745;29;20199;-80
2022/09/05 04:38:41;;;;;;;1.80;1.30;;;9.90;99.90;;;;;;4826112;29;20262;-77
2022/09/05 04:41:22;;;;;;;3.50;1.40;;;10.00;99.90;;;;;;4825684;29;20215;-71
2022/09/05 04:44:26;;;;;;;4.00;1.50;;;10.00;99.90;;;;;;4826851;29;20732;-75
2022/09/05 04:47:02;;;;;;;8.83;1.43;;;10.00;99.90;;;;;;4825708;29;20309;-73
2022/09/05 04:49:36;;;;;;;2.83;1.27;;;10.10;99.90;;;;;;4825564;29;20217;-72
2022/09/05 04:52:24;;;;;;;2.37;1.50;;;10.10;99.90;;;;;;4825431;29;20243;-79
2022/09/05 04:55:07;;;;;;;4.57;1.30;;;10.20;99.90;;;;;;4827070;29;20567;-80
2022/09/05 04:58:14;;;;;;;2.63;1.20;;;10.20;99.90;;;;;;4825635;29;20207;-77
2022/09/05 05:01:06;;;;;;;5.57;1.27;;;10.30;99.90;;;;;;4822679;29;20217;-79
2022/09/05 05:03:53;;;;;;;6.43;1.60;;;10.40;99.90;;;;;;4825214;29;20214;-76
2022/09/05 05:06:49;;;;;;;6.63;1.77;;;10.50;99.90;;;;;;4825174;29;20215;-72
2022/09/05 05:09:32;;;;;;;3.47;1.47;;;10.60;99.90;;;;;;4825103;29;20206;-75
2022/09/05 05:12:09;;;;;;;2.53;1.43;;;10.60;99.90;;;;;;4825073;29;20202;-77
2022/09/05 05:15:02;;;;;;;2.53;1.27;;;10.70;99.90;;;;;;4826294;29;20195;-75
2022/09/05 05:18:10;;;;;;;1.67;1.00;;;10.80;99.90;;;;;;4824960;29;20210;-75
2022/09/05 05:21:24;;;;;;;1.83;1.40;;;10.80;99.90;;;;;;4825109;29;20211;-74
2022/09/05 05:23:59;;;;;;;2.27;1.10;;;11.00;99.90;;;;;;4825151;29;20802;-76
2022/09/05 05:27:20;;;;;;;2.60;1.20;;;11.00;99.90;;;;;;4826186;29;20202;-76
2022/09/05 05:30:06;;;;;;;2.53;1.13;;;11.10;99.90;;;;;;4773557;30;20211;-72
2022/09/05 05:32:40;;;;;;;2.60;1.10;;;11.20;99.90;;;;;;4787888;30;20218;-74
2022/09/05 05:35:13;;;;;;;2.30;1.30;;;11.40;99.90;;;;;;4773060;30;20208;-76
2022/09/05 05:37:45;;;;;;;2.53;1.37;;;11.40;99.90;;;;;;4772972;30;20223;-76
2022/09/05 05:40:24;;;;;;;5.63;1.30;;;11.40;99.90;;;;;;4772794;30;20248;-74
2022/09/05 05:42:52;;;;;;;1.73;1.00;;;11.50;99.90;;;;;;4772679;30;20204;-74
2022/09/05 05:45:28;;;;;;;2.30;1.20;;;11.60;99.90;;;;;;4772625;30;20224;-74
2022/09/05 05:48:00;;;;;;;3.47;1.17;;;11.70;99.90;;;;;;4772675;30;20215;-74
2022/09/05 05:50:57;;;;;;;2.63;1.23;;;11.70;99.90;;;;;;4772646;30;20212;-77
2022/09/05 05:53:47;;;;;;;5.50;1.30;;;11.80;99.90;;;;;;4772869;30;20223;-72
2022/09/05 05:56:20;;;;;;;4.47;1.20;;;11.90;99.90;;;;;;4772727;30;20667;-74
2022/09/05 05:59:11;;;;;;;2.20;1.10;;;12.00;99.90;;;;;;4772604;30;20236;-72
2022/09/05 06:01:57;;;;;;;3.90;1.33;;;12.20;99.90;;;;;;4787128;30;20299;-74
2022/09/05 06:04:55;;;;;;;4.27;1.20;;;12.30;99.90;;;;;;4817251;29;20244;-73
2022/09/05 06:07:44;;;;;;;3.37;1.00;;;12.40;99.90;;;;;;4824242;29;20238;-76
2022/09/05 06:10:40;;;;;;;2.57;1.20;;;12.50;99.90;;;;;;4824532;29;20618;-75
2022/09/05 06:13:38;;;;;;;2.33;1.07;;;12.60;99.90;;;;;;4824292;29;20266;-73
2022/09/05 06:16:25;;;;;;;8.77;1.60;;;12.70;99.90;;;;;;4825393;29;20195;-73
2022/09/05 06:19:31;;;;;;;4.03;1.30;;;12.80;99.90;;;;;;4824232;29;20295;-74
2022/09/05 06:22:42;;;;;;;4.23;1.20;;;12.90;99.90;;;;;;4824105;29;20204;-73
2022/09/05 06:25:24;;;;;;;4.33;1.30;;;13.00;99.90;;;;;;4824018;29;20217;-75
2022/09/05 06:28:06;;;;;;;8.33;1.43;;;13.10;99.90;;;;;;4824021;29;20574;-71
2022/09/05 06:31:15;;;;;;;5.70;1.20;;;13.20;99.90;;;;;;4824145;29;20216;-71
2022/09/05 06:34:24;;;;;;;3.27;1.00;;;13.40;99.90;;;;;;4825267;29;20203;-73
2022/09/05 06:37:41;;;;;;;5.60;1.00;;;13.60;99.90;;;;;;4823980;29;20209;-71
2022/09/05 06:40:17;;;;;;;3.67;1.10;;;13.70;99.90;;;;;;4825265;29;20222;-71
2022/09/05 06:43:21;;;;;;;4.30;1.20;;;13.80;99.90;;;;;;4823819;29;20207;-72
2022/09/05 06:45:57;;;;;;;5.23;1.20;;;14.00;99.90;;;;;;4823993;29;20230;-72
2022/09/05 06:48:27;;;;;;;2.77;1.10;;;14.10;99.90;;;;;;4823895;29;20206;-73
2022/09/05 06:51:27;;;;;;;4.03;1.27;;;14.10;99.90;;;;;;4823559;29;20277;-73
2022/09/05 06:54:00;;;;;;;2.90;1.10;;;14.20;99.90;;;;;;4823680;29;20556;-71
2022/09/05 06:56:32;;;;;;;2.73;1.00;;;14.40;99.90;;;;;;4823580;29;20220;-72
2022/09/05 06:59:28;;;;;;;3.43;1.00;;;14.50;99.90;;;;;;4823546;29;20241;-71
2022/09/05 07:02:14;;;;;;;3.10;1.07;;;14.60;99.90;;;;;;4825148;29;20320;-79
2022/09/05 07:05:19;;;;;;;7.27;1.10;;;14.80;99.90;;;;;;4815654;29;20725;-77
2022/09/05 07:08:30;;;;;;;3.53;0.90;;;15.00;99.90;;;;;;4806579;29;20184;-79
2022/09/05 07:11:24;;;;;;;2.87;1.10;;;15.10;99.90;;;;;;4791079;29;20687;-74
2022/09/05 07:14:08;;;;;;;1.83;1.03;;;15.20;99.90;;;;;;4805184;29;20298;-73
2022/09/05 07:17:32;;;;;;;3.67;0.77;;;15.30;99.90;;;;;;4806575;29;20657;-74
2022/09/05 07:20:31;;;;;;;2.00;0.70;;;15.40;99.90;;;;;;4753519;30;20235;-71
2022/09/05 07:23:24;;;;;;;4.50;1.13;;;15.50;99.90;;;;;;4753557;30;20581;-70
2022/09/05 07:26:12;;;;;;;3.27;0.80;;;15.60;99.90;;;;;;4753783;30;20202;-72
2022/09/05 07:29:03;;;;;;;2.57;0.80;;;15.70;99.90;;;;;;4753537;30;20200;-70
2022/09/05 07:31:35;;;;;;;2.57;0.90;;;15.90;99.90;;;;;;4753434;30;20215;-70
2022/09/05 07:34:09;;;;;;;2.63;0.70;;;16.00;99.90;;;;;;4753191;30;20679;-71
2022/09/05 07:37:01;;;;;;;2.23;1.10;;;16.10;99.90;;;;;;4754705;30;20329;-70
2022/09/05 07:39:50;;;;;;;2.77;0.70;;;16.20;99.90;;;;;;4752687;30;20273;-69
2022/09/05 07:42:42;;;;;;;1.80;0.70;;;16.40;99.80;;;;;;4768032;30;20213;-68
2022/09/05 07:45:23;;;;;;;2.23;0.80;;;16.50;98.80;;;;;;4753031;30;20719;-73
2022/09/05 07:48:03;;;;;;;9.27;0.83;;;16.60;97.90;;;;;;4753008;30;20208;-73
2022/09/05 07:50:33;;;;;;;5.17;1.00;;;16.60;98.00;;;;;;4792602;29;20273;-71
2022/09/05 07:53:21;;;;;;;3.27;0.70;;;16.70;97.60;;;;;;4789478;29;20202;-70
2022/09/05 07:56:09;;;;;;;5.60;0.90;;;16.80;97.10;;;;;;4777231;29;20199;-71
2022/09/05 07:59:00;;;;;;;5.17;0.90;;;17.00;96.90;;;;;;4789516;29;20317;-72
2022/09/05 08:01:27;;;;;;;2.10;0.70;;;17.10;96.60;;;;;;4789259;29;20216;-72
2022/09/05 08:03:56;;;;;;;4.37;0.80;;;17.20;95.00;;;;;;4789399;29;20213;-71
2022/09/05 08:06:26;;;;;;;3.37;0.63;;;17.20;94.90;;;;;;4806003;29;20217;-72
2022/09/05 08:09:19;;;;;;;6.70;1.00;;;17.30;94.00;;;;;;4776992;29;20211;-72
2022/09/05 08:12:16;;;;;;;3.07;0.70;;;17.50;93.70;;;;;;4789295;29;20646;-73
2022/09/05 08:15:13;;;;;;;2.83;0.50;;;17.80;93.70;;;;;;4805749;29;20650;-72
2022/09/05 08:17:53;;;;;;;1.97;0.60;;;17.80;92.10;;;;;;4789760;29;20222;-74
2022/09/05 08:20:46;;;;;;;5.43;0.60;;;17.90;92.10;;;;;;4789139;29;20231;-72
2022/09/05 08:23:22;;;;;;;0.87;0.50;;;18.20;92.20;;;;;;4789191;29;20298;-72
2022/09/05 08:25:49;;;;;;;2.03;0.60;;;18.50;91.50;;;;;;4789392;29;20203;-70
2022/09/05 08:28:52;;;;;;;1.33;0.60;;;18.90;91.10;;;;;;4789403;29;20204;-72
2022/09/05 08:31:26;;;;;;;0.80;0.50;;;19.60;87.80;;;;;;4789131;29;20231;-70
2022/09/05 08:33:57;;;;;;;2.83;0.50;;;20.80;82.40;;;;;;4789027;29;20199;-71
2022/09/05 08:36:36;;;;;;;1.80;0.50;;;21.60;79.90;;;;;;4789237;29;20211;-71
2022/09/05 08:39:06;;;;;;;2.50;0.80;;;22.30;76.00;;;;;;4789166;29;20232;-69
2022/09/05 08:41:57;;;;;;;2.93;0.73;;;22.90;73.20;;;;;;4789097;29;20217;-68
2022/09/05 08:44:44;;;;;;;1.97;0.50;;;23.10;69.50;;;;;;4788813;29;20227;-71
2022/09/05 08:48:08;;;;;;;1.83;0.50;;;23.40;69.00;;;;;;4788839;29;20208;-68
2022/09/05 08:50:53;;;;;;;1.70;0.60;;;24.20;68.20;;;;;;4805273;29;20223;-70
2022/09/05 08:53:39;;;;;;;1.60;0.60;;;24.40;64.60;;;;;;4792288;29;20298;-69
2022/09/05 08:56:16;;;;;;;1.50;0.60;;;24.30;63.70;;;;;;4792362;29;20202;-69
2022/09/05 08:59:04;;;;;;;1.87;0.50;;;24.40;63.10;;;;;;4792181;29;20600;-72
2022/09/05 09:01:57;;;;;;;1.17;0.60;;;24.60;62.80;;;;;;4792092;29;20206;-68
2022/09/05 09:05:05;;;;;;;80.60;9.10;;;24.40;62.10;;;;;;4791881;29;20196;-69
2022/09/05 09:07:42;;;;;;;11.23;1.70;;;24.60;61.60;;;;;;4792191;29;20212;-72
2022/09/05 09:10:26;;;;;;;2.13;0.70;;;24.50;58.50;;;;;;4791938;29;20212;-72
2022/09/05 09:13:29;;;;;;;1.15;0.63;;;24.70;59.50;;;;;;4791814;29;20199;-71
2022/09/05 09:16:03;;;;;;;1.65;0.50;;;24.90;58.60;;;;;;4789442;29;20203;-71
2022/09/05 09:18:37;;;;;;;2.42;0.70;;;24.70;58.80;;;;;;4792058;29;20272;-71
2022/09/05 09:21:23;;;;;;;3.05;0.60;;;24.90;59.50;;;;;;4791728;29;20507;-72
2022/09/05 09:24:08;;;;;;;3.45;0.73;;;25.20;57.20;;;;;;4792032;29;20211;-71
2022/09/05 09:26:48;;;;;;;1.77;0.65;;;25.30;56.60;;;;;;4791595;29;20299;-75
2022/09/05 09:29:16;;;;;;;2.17;0.55;;;25.50;56.60;;;;;;4791645;29;20209;-75
2022/09/05 09:32:02;;;;;;;0.90;0.50;;;25.70;55.50;;;;;;4776594;29;20211;-73
2022/09/05 09:34:50;;;;;;;0.55;0.30;;;26.10;54.30;;;;;;4777537;29;20260;-73
2022/09/05 09:37:51;;;;;;;0.52;0.38;;;26.40;53.90;;;;;;4791861;29;20204;-72
2022/09/05 09:40:27;;;;;;;1.95;0.40;;;26.40;53.00;;;;;;4791562;29;20231;-74
2022/09/05 09:43:17;;;;;;;0.93;0.40;;;26.60;53.30;;;;;;4791615;29;20571;-78
2022/09/05 09:46:06;;;;;;;1.67;0.52;;;27.00;51.70;;;;;;4791558;29;20319;-74
2022/09/05 09:48:44;;;;;;;0.47;0.38;;;27.30;51.60;;;;;;4807796;29;20595;-78
2022/09/05 09:51:44;;;;;;;0.60;0.50;;;27.00;51.10;;;;;;4781255;29;20263;-76
2022/09/05 09:54:26;;;;;;;0.77;0.50;;;27.00;50.30;;;;;;4806392;29;20222;-76
2022/09/05 09:57:19;;;;;;;0.68;0.40;;;27.30;49.80;;;;;;4806464;29;20203;-68
2022/09/05 09:59:52;;;;;;;0.50;0.40;;;27.40;51.20;;;;;;4807680;29;20306;-78
2022/09/05 10:02:50;;;;;;;2.08;0.50;;;27.80;51.10;;;;;;4806028;29;20235;-69
2022/09/05 10:06:05;;;;;;;63.65;6.75;;;27.80;49.40;;;;;;4806026;29;20208;-71
2022/09/05 10:09:23;;;;;;;215.95;18.10;;;28.20;48.70;;;;;;4806183;29;20650;-73
2022/09/05 10:12:27;;;;;;;37.40;3.42;;;28.70;49.50;;;;;;4807190;29;20205;-72
2022/09/05 10:15:25;;;;;;;14.55;1.98;;;29.10;48.20;;;;;;4807481;29;20208;-71
2022/09/05 10:18:04;;;;;;;6.55;0.98;;;29.30;46.80;;;;;;4806366;29;20203;-74
2022/09/05 10:21:14;;;;;;;1.90;0.47;;;29.10;46.70;;;;;;4805769;29;20231;-73
2022/09/05 10:23:58;;;;;;;2.05;0.30;;;29.20;45.50;;;;;;4805903;29;20237;-73
2022/09/05 10:27:03;;;;;;;1.70;0.50;;;29.20;44.90;;;;;;4806002;29;20294;-73
2022/09/05 10:30:01;;;;;;;1.02;0.40;;;28.90;45.90;;;;;;4805766;29;20351;-73
2022/09/05 10:32:56;;;;;;;0.68;0.40;;;28.60;46.60;;;;;;4806916;29;20218;-71
2022/09/05 10:35:50;;;;;;;0.93;0.40;;;28.90;46.80;;;;;;4805653;29;20549;-72
2022/09/05 10:38:35;;;;;;;2.15;0.40;;;29.10;46.00;;;;;;4805784;29;20207;-70
2022/09/05 10:41:09;;;;;;;2.80;0.40;;;29.50;45.60;;;;;;4805430;29;20227;-71
2022/09/05 10:44:00;;;;;;;0.45;0.40;;;29.60;44.90;;;;;;4805212;29;20223;-72
2022/09/05 10:46:58;;;;;;;1.90;0.55;;;29.70;44.00;;;;;;4805735;29;20653;-72
2022/09/05 10:49:29;;;;;;;1.02;0.30;;;29.90;44.60;;;;;;4768750;30;20209;-70
2022/09/05 10:52:23;;;;;;;1.52;0.50;;;29.90;44.60;;;;;;4753430;30;20240;-76
2022/09/05 10:55:21;;;;;;;1.00;0.40;;;29.80;44.10;;;;;;4753886;30;20244;-73
2022/09/05 10:58:14;;;;;;;6.18;0.50;;;30.10;44.20;;;;;;4753863;30;20217;-76
2022/09/05 11:01:20;;;;;;;3.33;0.55;;;30.20;43.60;;;;;;4768573;30;20322;-73
2022/09/05 11:04:26;;;;;;;3.47;0.43;;;30.60;43.30;;;;;;4768421;30;20215;-75
2022/09/05 11:07:15;;;;;;;0.65;0.40;;;30.40;43.10;;;;;;4753737;30;20209;-79
2022/09/05 11:10:07;;;;;;;1.90;0.40;;;31.00;43.70;;;;;;4768272;30;20706;-74
2022/09/05 11:12:48;;;;;;;1.75;0.60;;;31.00;42.60;;;;;;4753725;30;20215;-75
2022/09/05 11:15:35;;;;;;;5.35;0.80;;;31.20;42.30;;;;;;4753234;30;20209;-74
2022/09/05 11:18:14;;;;;;;13.85;1.40;;;31.30;42.10;;;;;;4768429;30;20209;-72
2022/09/05 11:21:07;;;;;;;11.77;1.27;;;31.80;41.30;;;;;;4753072;30;20327;-71
2022/09/05 11:23:47;;;;;;;2.03;0.50;;;32.00;41.40;;;;;;4753334;30;20216;-73
2022/09/05 11:26:41;;;;;;;1.45;0.40;;;31.70;40.90;;;;;;4775256;29;20282;-74
2022/09/05 11:29:11;;;;;;;5.15;0.80;;;32.00;40.70;;;;;;4805220;29;20270;-71
2022/09/05 11:31:46;;;;;;;3.33;0.60;;;32.80;40.30;;;;;;4804695;29;20218;-73
2022/09/05 11:34:45;;;;;;;5.05;0.70;;;32.90;39.60;;;;;;4804790;29;20207;-70
2022/09/05 11:37:44;;;;;;;58.20;5.85;;;34.10;39.50;;;;;;4804653;29;20203;-73
2022/09/05 11:40:58;;;;;;;2.55;0.60;;;34.30;37.80;;;;;;4804699;29;20321;-72
2022/09/05 11:44:26;;;;;;;0.75;0.40;;;34.50;36.90;;;;;;4805834;29;20199;-72
2022/09/05 11:47:07;;;;;;;1.00;0.43;;;34.30;37.50;;;;;;4752871;30;20614;-71
2022/09/05 11:50:00;;;;;;;3.80;0.60;;;34.60;37.30;;;;;;4767535;30;20243;-72
2022/09/05 11:53:07;;;;;;;0.85;0.32;;;34.90;36.30;;;;;;4767416;30;20224;-72
2022/09/05 11:55:55;;;;;;;1.48;0.50;;;35.50;35.20;;;;;;4752804;30;20205;-70
2022/09/05 11:58:47;;;;;;;3.33;0.40;;;35.90;34.90;;;;;;4752680;30;20223;-73
2022/09/05 12:01:50;;;;;;;1.92;0.55;;;35.90;35.30;;;;;;4752749;30;20278;-68
2022/09/05 12:04:57;;;;;;;1.27;0.50;;;36.10;34.70;;;;;;4752830;30;20208;-71
2022/09/05 12:08:00;;;;;;;1.85;0.43;;;35.70;34.70;;;;;;4749865;30;20330;-78
2022/09/05 12:10:45;;;;;;;3.40;0.60;;;35.80;34.90;;;;;;4749676;30;20695;-67
2022/09/05 12:13:46;;;;;;;0.40;0.40;;;35.40;35.00;;;;;;4749715;30;20206;-73
2022/09/05 12:16:18;;;;;;;0.85;0.50;;;35.50;34.70;;;;;;4749687;30;20209;-70
2022/09/05 12:19:15;;;;;;;3.28;0.70;;;35.70;35.00;;;;;;4767958;30;20208;-72
2022/09/05 12:22:23;;;;;;;1.00;0.40;;;36.00;34.50;;;;;;4711952;30;20270;-67
2022/09/05 12:25:15;;;;;;;0.57;0.40;;;35.50;34.20;;;;;;4663310;30;20589;-73
2022/09/05 12:28:10;;;;;;;1.65;0.50;;;35.40;34.70;;;;;;4651973;30;20300;-72
2022/09/05 12:31:31;;;;;;;1.67;0.40;;;35.40;34.40;;;;;;4665934;30;20709;-69
2022/09/05 12:34:36;;;;;;;1.73;0.50;;;34.70;35.60;;;;;;4651921;30;20216;-72
2022/09/05 12:37:43;;;;;;;0.80;0.50;;;34.40;35.30;;;;;;4666151;30;20209;-75
2022/09/05 12:40:37;;;;;;;3.50;0.77;;;34.10;34.80;;;;;;4665951;30;20708;-70
2022/09/05 12:43:27;;;;;;;1.02;0.40;;;34.20;35.40;;;;;;4671052;30;20212;-74
2022/09/05 12:46:25;;;;;;;3.15;0.50;;;34.40;35.20;;;;;;4668696;30;20220;-71
2022/09/05 12:49:06;;;;;;;1.95;0.50;;;34.40;34.80;;;;;;4682747;30;20596;-80
2022/09/05 12:51:40;;;;;;;1.20;0.50;;;33.70;35.30;;;;;;4690010;30;20649;-72
2022/09/05 12:54:49;;;;;;;1.63;0.63;;;34.10;35.30;;;;;;4685860;30;20215;-74
2022/09/05 12:57:28;;;;;;;2.80;0.80;;;33.70;36.50;;;;;;4651562;30;20275;-77
2022/09/05 13:00:22;;;;;;;2.00;0.60;;;33.70;35.90;;;;;;4719220;30;20227;-73
2022/09/05 13:03:17;;;;;;;0.75;0.50;;;33.40;36.40;;;;;;4737839;30;20217;-73
2022/09/05 13:05:58;;;;;;;3.05;0.60;;;32.40;36.90;;;;;;4739093;30;20205;-76
2022/09/05 13:08:36;;;;;;;1.83;0.70;;;31.50;37.80;;;;;;4752739;30;20697;-78
2022/09/05 13:11:07;;;;;;;1.58;0.90;;;30.40;39.90;;;;;;4752717;30;20677;-73
2022/09/05 13:14:06;;;;;;;2.60;0.60;;;29.70;40.40;;;;;;4737763;30;20210;-72
2022/09/05 13:16:55;;;;;;;2.47;0.60;;;29.00;41.40;;;;;;4737724;30;20782;-74
2022/09/05 13:19:54;;;;;;;4.60;0.80;;;27.80;42.80;;;;;;4737851;30;20205;-73
2022/09/05 13:22:24;;;;;;;5.32;0.93;;;27.00;44.40;;;;;;4717213;30;20263;-70
2022/09/05 13:25:10;;;;;;;1.42;0.70;;;26.60;44.80;;;;;;4702702;30;20238;-73
2022/09/05 13:27:45;;;;;;;3.70;0.80;;;26.00;45.40;;;;;;4702694;30;20207;-72
2022/09/05 13:30:14;;;;;;;1.02;0.70;;;25.80;46.20;;;;;;4717162;30;20246;-74
2022/09/05 13:33:09;;;;;;;1.70;0.60;;;25.80;46.20;;;;;;4717247;30;20596;-73
2022/09/05 13:36:04;;;;;;;2.80;0.60;;;25.30;47.00;;;;;;4755014;30;20205;-73
2022/09/05 13:39:00;;;;;;;3.72;0.93;;;25.10;47.90;;;;;;4759784;30;20607;-69
2022/09/05 13:41:33;;;;;;;1.98;0.57;;;25.20;47.60;;;;;;4736955;30;20763;-71
2022/09/05 13:44:09;;;;;;;3.42;1.00;;;25.10;47.40;;;;;;4736705;30;20232;-75
2022/09/05 13:47:08;;;;;;;4.50;0.68;;;24.90;48.10;;;;;;4751832;30;20764;-76
2022/09/05 13:50:30;;;;;;;1.95;0.75;;;25.00;48.70;;;;;;4737099;30;20229;-75
2022/09/05 13:53:01;;;;;;;1.10;0.70;;;24.90;48.40;;;;;;4733857;30;20216;-77
2022/09/05 13:55:57;;;;;;;2.17;0.70;;;24.80;49.00;;;;;;4719932;30;20213;-74
2022/09/05 13:58:32;;;;;;;1.17;0.60;;;24.40;49.50;;;;;;4771943;30;20215;-76
2022/09/05 14:01:13;;;;;;;3.58;0.65;;;24.10;50.00;;;;;;4787631;30;20323;-77
2022/09/05 14:03:48;;;;;;;3.30;0.70;;;24.00;50.70;;;;;;4787330;30;20378;-78
2022/09/05 14:06:34;;;;;;;0.93;0.63;;;24.00;50.20;;;;;;4784659;29;20261;-76
2022/09/05 14:09:47;;;;;;;1.58;0.70;;;24.10;49.80;;;;;;4772073;30;20208;-72
2022/09/05 14:12:24;;;;;;;1.90;0.50;;;24.20;50.50;;;;;;4771864;30;20873;-75
2022/09/05 14:14:55;;;;;;;1.75;0.50;;;24.00;50.20;;;;;;4786969;30;20212;-72
2022/09/05 14:18:21;;;;;;;3.17;0.55;;;23.90;50.30;;;;;;4771734;30;20216;-72
2022/09/05 14:21:15;;;;;;;4.03;0.80;;;24.00;50.90;;;;;;4733602;30;20228;-71
2022/09/05 14:23:53;;;;;;;2.28;0.60;;;23.80;50.60;;;;;;4733326;30;20215;-74
2022/09/05 14:26:29;;;;;;;1.73;0.60;;;23.60;51.20;;;;;;4733996;30;20252;-74
2022/09/05 14:29:08;;;;;;;1.08;0.50;;;23.50;51.70;;;;;;4734676;30;20248;-75
2022/09/05 14:31:51;;;;;;;0.63;0.50;;;23.40;52.20;;;;;;4736559;30;20213;-75
2022/09/05 14:34:58;;;;;;;4.10;0.60;;;23.70;52.30;;;;;;4736273;30;20584;-73
2022/09/05 14:38:17;;;;;;;3.65;0.70;;;23.90;51.00;;;;;;4724885;30;20218;-72
2022/09/05 14:41:22;;;;;;;2.78;0.60;;;23.60;51.60;;;;;;4732614;30;20276;-71
2022/09/05 14:43:57;;;;;;;6.37;0.90;;;23.50;52.30;;;;;;4718361;30;20711;-73
2022/09/05 14:46:43;;;;;;;1.10;0.60;;;23.30;52.80;;;;;;4733071;30;20285;-74
2022/09/05 14:49:17;;;;;;;2.70;0.60;;;23.00;53.00;;;;;;4717464;30;20210;-70
2022/09/05 14:51:50;;;;;;;0.90;0.50;;;22.80;53.10;;;;;;4770176;29;20246;-74